KPIE/PIE METAR and TAF weather

Enter ICAO airport designator
Station Type Date Time Source
KPIE METAR 2024/06/16 07:53 UTC NOAA

KPIE 160753Z AUTO 15004KT 10SM CLR 25/24 A2999 RMK AO2 SLP154 T02500239


Station Type Date Time Source
KPIE Decoded METAR 2024/06/16 07:53 UTC NOAA

ST PETERSBURG/CLEARWATER, FL, United States (KPIE) 27-55N 82-41W 4M
Jun 16, 2024 - 03:53 AM EDT / 2024.06.16 0753 UTC
Wind: from the SSE (150 degrees) at 5 MPH (4 KT):0
Visibility: 10 mile(s):0
Sky conditions: clear
Temperature: 77.0 F (25.0 C)
Dew Point: 75.0 F (23.9 C)
Relative Humidity: 93%
Pressure (altimeter): 29.99 in. Hg (1015 hPa)
ob: KPIE 160753Z AUTO 15004KT 10SM CLR 25/24 A2999 RMK AO2 SLP154 T02500239
cycle: 8

Station Type Date Time Source
KPIE TAF 2024/06/16 06:22 UTC NOAA